sensor_id;sensor_type;location;lat;lon;timestamp;noise_LAeq;noise_LA_min;noise_LA_max;noise_LA01;noise_LA95
64079;Laerm;51042;49.696;10.808;2023-07-08T00:00:14;46.75;42.32;58.79;;
64079;Laerm;51042;49.696;10.808;2023-07-08T00:02:41;46.85;42.18;59.60;;
64079;Laerm;51042;49.696;10.808;2023-07-08T00:05:08;45.46;42.24;53.60;;
64079;Laerm;51042;49.696;10.808;2023-07-08T00:07:34;45.55;42.03;51.29;;
64079;Laerm;51042;49.696;10.808;2023-07-08T00:09:59;45.47;42.31;53.85;;
64079;Laerm;51042;49.696;10.808;2023-07-08T00:12:24;51.34;41.96;66.01;;
64079;Laerm;51042;49.696;10.808;2023-07-08T00:14:50;45.70;41.93;54.16;;
64079;Laerm;51042;49.696;10.808;2023-07-08T00:17:15;45.70;42.08;54.43;;
64079;Laerm;51042;49.696;10.808;2023-07-08T00:19:40;45.44;41.82;48.73;;
64079;Laerm;51042;49.696;10.808;2023-07-08T00:22:11;45.43;41.80;48.77;;
64079;Laerm;51042;49.696;10.808;2023-07-08T00:24:38;45.94;42.01;51.83;;
64079;Laerm;51042;49.696;10.808;2023-07-08T00:27:04;49.93;42.19;64.50;;
64079;Laerm;51042;49.696;10.808;2023-07-08T00:29:29;45.55;42.21;49.28;;
64079;Laerm;51042;49.696;10.808;2023-07-08T00:31:55;53.18;41.97;71.90;;
64079;Laerm;51042;49.696;10.808;2023-07-08T00:34:20;44.51;41.86;47.41;;
64079;Laerm;51042;49.696;10.808;2023-07-08T00:36:45;46.73;41.88;59.05;;
64079;Laerm;51042;49.696;10.808;2023-07-08T00:39:14;44.86;41.74;62.96;;
64079;Laerm;51042;49.696;10.808;2023-07-08T00:41:43;44.29;41.71;48.95;;
64079;Laerm;51042;49.696;10.808;2023-07-08T00:44:11;44.53;41.91;52.75;;
64079;Laerm;51042;49.696;10.808;2023-07-08T00:51:37;44.27;41.43;47.02;;
64079;Laerm;51042;49.696;10.808;2023-07-08T00:54:03;44.01;41.14;47.32;;
64079;Laerm;51042;49.696;10.808;2023-07-08T00:56:39;45.27;41.25;57.77;;
64079;Laerm;51042;49.696;10.808;2023-07-08T00:59:09;43.90;40.85;55.10;;
64079;Laerm;51042;49.696;10.808;2023-07-08T01:01:40;43.86;41.36;51.90;;
64079;Laerm;51042;49.696;10.808;2023-07-08T01:04:19;44.10;41.35;47.60;;
64079;Laerm;51042;49.696;10.808;2023-07-08T01:06:49;43.89;40.70;52.20;;
64079;Laerm;51042;49.696;10.808;2023-07-08T01:09:24;56.70;41.44;74.52;;
64079;Laerm;51042;49.696;10.808;2023-07-08T01:11:51;43.85;41.12;46.61;;
64079;Laerm;51042;49.696;10.808;2023-07-08T01:14:19;48.01;41.42;64.17;;
64079;Laerm;51042;49.696;10.808;2023-07-08T01:16:46;43.78;41.13;46.50;;
64079;Laerm;51042;49.696;10.808;2023-07-08T01:19:16;43.64;40.86;46.30;;
64079;Laerm;51042;49.696;10.808;2023-07-08T01:24:19;43.97;41.18;47.51;;
64079;Laerm;51042;49.696;10.808;2023-07-08T01:26:46;44.19;41.60;49.41;;
64079;Laerm;51042;49.696;10.808;2023-07-08T01:29:12;44.18;41.68;48.25;;
64079;Laerm;51042;49.696;10.808;2023-07-08T01:31:38;51.02;41.47;67.38;;
64079;Laerm;51042;49.696;10.808;2023-07-08T01:34:04;44.37;41.31;59.69;;
64079;Laerm;51042;49.696;10.808;2023-07-08T01:36:37;59.75;41.65;78.41;;
64079;Laerm;51042;49.696;10.808;2023-07-08T01:39:04;44.61;41.76;48.12;;
64079;Laerm;51042;49.696;10.808;2023-07-08T01:41:29;44.72;42.05;49.31;;
64079;Laerm;51042;49.696;10.808;2023-07-08T01:43:55;44.36;41.44;53.46;;
64079;Laerm;51042;49.696;10.808;2023-07-08T01:46:23;44.42;41.96;51.80;;
64079;Laerm;51042;49.696;10.808;2023-07-08T01:48:53;44.27;41.85;51.06;;
64079;Laerm;51042;49.696;10.808;2023-07-08T01:51:20;55.62;41.57;76.94;;
64079;Laerm;51042;49.696;10.808;2023-07-08T01:53:47;44.37;41.76;47.25;;
64079;Laerm;51042;49.696;10.808;2023-07-08T01:56:13;51.14;42.01;72.74;;
64079;Laerm;51042;49.696;10.808;2023-07-08T01:58:39;44.49;41.56;47.30;;
64079;Laerm;51042;49.696;10.808;2023-07-08T02:01:05;44.77;41.30;66.73;;
64079;Laerm;51042;49.696;10.808;2023-07-08T02:03:30;46.43;41.90;59.02;;
64079;Laerm;51042;49.696;10.808;2023-07-08T02:05:56;52.41;41.80;67.89;;
64079;Laerm;51042;49.696;10.808;2023-07-08T02:08:22;65.09;41.70;82.64;;
64079;Laerm;51042;49.696;10.808;2023-07-08T02:10:55;44.41;41.44;49.34;;
64079;Laerm;51042;49.696;10.808;2023-07-08T02:13:21;44.45;41.43;47.80;;
64079;Laerm;51042;49.696;10.808;2023-07-08T02:15:48;44.54;41.69;49.28;;
64079;Laerm;51042;49.696;10.808;2023-07-08T02:18:14;44.57;41.73;53.85;;
64079;Laerm;51042;49.696;10.808;2023-07-08T02:20:39;44.49;41.91;49.16;;
64079;Laerm;51042;49.696;10.808;2023-07-08T02:23:04;44.67;41.65;56.78;;
64079;Laerm;51042;49.696;10.808;2023-07-08T02:25:30;44.16;41.33;48.26;;
64079;Laerm;51042;49.696;10.808;2023-07-08T02:27:55;44.02;41.26;48.60;;
64079;Laerm;51042;49.696;10.808;2023-07-08T02:30:25;50.06;41.36;64.84;;
64079;Laerm;51042;49.696;10.808;2023-07-08T02:32:50;51.01;41.65;67.76;;
64079;Laerm;51042;49.696;10.808;2023-07-08T02:35:24;52.04;41.77;69.18;;
64079;Laerm;51042;49.696;10.808;2023-07-08T02:37:50;51.78;41.42;69.96;;
64079;Laerm;51042;49.696;10.808;2023-07-08T02:40:15;51.01;41.21;66.84;;
64079;Laerm;51042;49.696;10.808;2023-07-08T02:42:41;44.32;41.29;53.26;;
64079;Laerm;51042;49.696;10.808;2023-07-08T02:45:08;44.29;41.52;49.68;;
64079;Laerm;51042;49.696;10.808;2023-07-08T02:47:33;53.28;41.31;71.64;;
64079;Laerm;51042;49.696;10.808;2023-07-08T02:49:59;47.24;41.35;64.66;;
64079;Laerm;51042;49.696;10.808;2023-07-08T02:52:24;44.67;41.51;58.53;;
64079;Laerm;51042;49.696;10.808;2023-07-08T02:54:49;44.53;41.65;50.80;;
64079;Laerm;51042;49.696;10.808;2023-07-08T02:57:15;44.77;41.71;51.73;;
64079;Laerm;51042;49.696;10.808;2023-07-08T02:59:40;50.34;41.55;66.04;;
64079;Laerm;51042;49.696;10.808;2023-07-08T03:02:05;54.69;42.02;69.92;;
64079;Laerm;51042;49.696;10.808;2023-07-08T03:04:31;50.96;42.56;68.27;;
64079;Laerm;51042;49.696;10.808;2023-07-08T03:06:56;54.94;42.55;73.50;;
64079;Laerm;51042;49.696;10.808;2023-07-08T03:09:21;56.88;42.26;73.91;;
64079;Laerm;51042;49.696;10.808;2023-07-08T03:11:47;59.65;42.10;75.91;;
64079;Laerm;51042;49.696;10.808;2023-07-08T03:14:12;58.32;41.91;74.46;;
64079;Laerm;51042;49.696;10.808;2023-07-08T03:16:38;61.50;42.27;80.45;;
64079;Laerm;51042;49.696;10.808;2023-07-08T03:19:03;60.91;42.21;78.90;;
64079;Laerm;51042;49.696;10.808;2023-07-08T03:21:29;55.84;40.77;72.24;;
64079;Laerm;51042;49.696;10.808;2023-07-08T03:23:55;59.61;41.51;75.72;;
64079;Laerm;51042;49.696;10.808;2023-07-08T03:26:22;59.16;41.23;76.62;;
64079;Laerm;51042;49.696;10.808;2023-07-08T03:28:48;58.95;41.05;76.75;;
64079;Laerm;51042;49.696;10.808;2023-07-08T03:31:15;59.60;41.80;76.05;;
64079;Laerm;51042;49.696;10.808;2023-07-08T03:33:40;49.87;41.34;60.94;;
64079;Laerm;51042;49.696;10.808;2023-07-08T03:36:12;54.85;40.99;71.69;;
64079;Laerm;51042;49.696;10.808;2023-07-08T03:38:38;54.56;41.80;68.63;;
64079;Laerm;51042;49.696;10.808;2023-07-08T03:41:04;54.22;41.64;69.92;;
64079;Laerm;51042;49.696;10.808;2023-07-08T03:43:30;57.32;41.64;73.62;;
64079;Laerm;51042;49.696;10.808;2023-07-08T03:45:55;57.95;41.67;73.70;;
64079;Laerm;51042;49.696;10.808;2023-07-08T03:48:20;59.96;41.87;80.49;;
64079;Laerm;51042;49.696;10.808;2023-07-08T03:50:46;52.93;41.30;63.54;;
64079;Laerm;51042;49.696;10.808;2023-07-08T03:53:11;57.65;41.99;75.68;;
64079;Laerm;51042;49.696;10.808;2023-07-08T03:55:37;56.80;41.84;74.99;;
64079;Laerm;51042;49.696;10.808;2023-07-08T03:58:02;61.10;41.30;86.44;;
64079;Laerm;51042;49.696;10.808;2023-07-08T04:00:28;58.98;42.35;73.87;;
64079;Laerm;51042;49.696;10.808;2023-07-08T04:02:53;60.07;41.85;77.45;;
64079;Laerm;51042;49.696;10.808;2023-07-08T04:05:21;61.78;43.25;74.75;;
64079;Laerm;51042;49.696;10.808;2023-07-08T04:07:47;58.20;42.40;73.06;;
64079;Laerm;51042;49.696;10.808;2023-07-08T04:10:14;51.47;41.63;64.40;;
64079;Laerm;51042;49.696;10.808;2023-07-08T04:12:40;49.61;40.57;61.35;;
64079;Laerm;51042;49.696;10.808;2023-07-08T04:15:08;56.72;40.92;71.64;;
64079;Laerm;51042;49.696;10.808;2023-07-08T04:17:36;55.65;41.26;72.48;;
64079;Laerm;51042;49.696;10.808;2023-07-08T04:20:04;61.38;41.36;78.02;;
64079;Laerm;51042;49.696;10.808;2023-07-08T04:22:30;54.30;39.92;72.74;;
64079;Laerm;51042;49.696;10.808;2023-07-08T04:24:55;59.23;40.52;73.67;;
64079;Laerm;51042;49.696;10.808;2023-07-08T04:27:20;57.48;40.10;72.85;;
64079;Laerm;51042;49.696;10.808;2023-07-08T04:29:46;55.04;39.99;69.70;;
64079;Laerm;51042;49.696;10.808;2023-07-08T04:32:11;56.57;40.20;71.47;;
64079;Laerm;51042;49.696;10.808;2023-07-08T04:34:37;55.72;40.97;71.81;;
64079;Laerm;51042;49.696;10.808;2023-07-08T04:37:02;54.67;40.22;72.26;;
64079;Laerm;51042;49.696;10.808;2023-07-08T04:39:30;65.92;40.76;84.46;;
64079;Laerm;51042;49.696;10.808;2023-07-08T04:41:55;51.04;39.51;70.38;;
64079;Laerm;51042;49.696;10.808;2023-07-08T04:44:21;54.58;40.23;70.87;;
64079;Laerm;51042;49.696;10.808;2023-07-08T04:46:56;62.26;40.82;79.26;;
64079;Laerm;51042;49.696;10.808;2023-07-08T04:49:23;51.48;39.75;64.10;;
64079;Laerm;51042;49.696;10.808;2023-07-08T04:51:49;56.67;38.57;71.65;;
64079;Laerm;51042;49.696;10.808;2023-07-08T04:54:15;60.44;40.15;76.94;;
64079;Laerm;51042;49.696;10.808;2023-07-08T04:56:48;60.31;41.56;75.38;;
64079;Laerm;51042;49.696;10.808;2023-07-08T04:59:16;58.57;41.38;72.80;;
64079;Laerm;51042;49.696;10.808;2023-07-08T05:01:42;58.59;42.17;74.73;;
64079;Laerm;51042;49.696;10.808;2023-07-08T05:04:11;54.97;42.47;67.83;;
64079;Laerm;51042;49.696;10.808;2023-07-08T05:06:37;54.39;41.57;68.15;;
64079;Laerm;51042;49.696;10.808;2023-07-08T05:09:03;54.97;41.78;68.57;;
64079;Laerm;51042;49.696;10.808;2023-07-08T05:11:28;56.27;41.47;67.74;;
64079;Laerm;51042;49.696;10.808;2023-07-08T05:13:54;54.99;41.61;71.35;;
64079;Laerm;51042;49.696;10.808;2023-07-08T05:16:19;60.24;42.37;74.52;;
64079;Laerm;51042;49.696;10.808;2023-07-08T05:18:45;61.79;42.08;73.73;;
64079;Laerm;51042;49.696;10.808;2023-07-08T05:21:11;54.76;41.28;67.42;;
64079;Laerm;51042;49.696;10.808;2023-07-08T05:23:36;51.68;41.43;63.36;;
64079;Laerm;51042;49.696;10.808;2023-07-08T05:26:03;58.83;41.65;73.79;;
64079;Laerm;51042;49.696;10.808;2023-07-08T05:28:29;63.82;42.01;88.28;;
64079;Laerm;51042;49.696;10.808;2023-07-08T05:30:55;59.92;41.99;74.88;;
64079;Laerm;51042;49.696;10.808;2023-07-08T05:33:24;60.83;41.18;82.44;;
64079;Laerm;51042;49.696;10.808;2023-07-08T05:35:50;64.75;41.24;88.58;;
64079;Laerm;51042;49.696;10.808;2023-07-08T05:38:16;57.91;41.51;76.21;;
64079;Laerm;51042;49.696;10.808;2023-07-08T05:40:41;60.27;40.52;75.12;;
64079;Laerm;51042;49.696;10.808;2023-07-08T05:43:07;59.49;40.62;70.23;;
64079;Laerm;51042;49.696;10.808;2023-07-08T05:45:32;51.11;39.43;65.65;;
64079;Laerm;51042;49.696;10.808;2023-07-08T05:48:00;61.64;40.78;84.68;;
64079;Laerm;51042;49.696;10.808;2023-07-08T05:50:25;57.25;40.80;76.18;;
64079;Laerm;51042;49.696;10.808;2023-07-08T05:52:51;59.90;44.93;72.96;;
64079;Laerm;51042;49.696;10.808;2023-07-08T05:55:16;59.42;41.47;80.70;;
64079;Laerm;51042;49.696;10.808;2023-07-08T05:57:41;56.78;41.52;69.34;;
64079;Laerm;51042;49.696;10.808;2023-07-08T06:00:07;58.66;41.00;75.43;;
64079;Laerm;51042;49.696;10.808;2023-07-08T06:02:33;58.40;42.19;72.08;;
64079;Laerm;51042;49.696;10.808;2023-07-08T06:04:58;57.87;40.16;70.83;;
64079;Laerm;51042;49.696;10.808;2023-07-08T06:07:24;59.19;39.78;73.40;;
64079;Laerm;51042;49.696;10.808;2023-07-08T06:09:49;56.80;42.63;68.06;;
64079;Laerm;51042;49.696;10.808;2023-07-08T06:12:15;60.01;41.61;79.10;;
64079;Laerm;51042;49.696;10.808;2023-07-08T06:14:40;56.42;40.82;73.26;;
64079;Laerm;51042;49.696;10.808;2023-07-08T06:17:05;57.61;40.47;69.61;;
64079;Laerm;51042;49.696;10.808;2023-07-08T06:19:32;54.71;40.36;73.22;;
64079;Laerm;51042;49.696;10.808;2023-07-08T06:21:57;56.84;41.17;69.10;;
64079;Laerm;51042;49.696;10.808;2023-07-08T06:24:23;61.59;45.10;73.36;;
64079;Laerm;51042;49.696;10.808;2023-07-08T06:26:49;65.15;43.91;78.44;;
64079;Laerm;51042;49.696;10.808;2023-07-08T06:29:14;61.24;45.04;79.38;;
64079;Laerm;51042;49.696;10.808;2023-07-08T06:31:41;60.04;43.29;74.44;;
64079;Laerm;51042;49.696;10.808;2023-07-08T06:34:06;66.38;44.07;83.24;;
64079;Laerm;51042;49.696;10.808;2023-07-08T06:36:31;58.06;42.35;69.91;;
64079;Laerm;51042;49.696;10.808;2023-07-08T06:38:57;68.23;42.29;85.67;;
64079;Laerm;51042;49.696;10.808;2023-07-08T06:41:22;59.86;40.96;79.78;;
64079;Laerm;51042;49.696;10.808;2023-07-08T06:43:47;58.88;42.32;72.30;;
64079;Laerm;51042;49.696;10.808;2023-07-08T06:46:13;61.46;43.93;73.04;;
64079;Laerm;51042;49.696;10.808;2023-07-08T06:48:39;59.69;43.54;73.64;;
64079;Laerm;51042;49.696;10.808;2023-07-08T06:51:04;62.39;41.00;73.13;;
64079;Laerm;51042;49.696;10.808;2023-07-08T06:53:29;61.65;42.78;73.02;;
64079;Laerm;51042;49.696;10.808;2023-07-08T06:55:54;62.42;41.33;76.06;;
64079;Laerm;51042;49.696;10.808;2023-07-08T06:58:20;63.34;42.04;81.77;;
64079;Laerm;51042;49.696;10.808;2023-07-08T07:00:45;64.57;45.75;77.83;;
64079;Laerm;51042;49.696;10.808;2023-07-08T07:03:12;57.70;40.22;70.69;;
64079;Laerm;51042;49.696;10.808;2023-07-08T07:05:38;58.01;41.28;71.74;;
64079;Laerm;51042;49.696;10.808;2023-07-08T07:08:03;61.11;44.11;74.40;;
64079;Laerm;51042;49.696;10.808;2023-07-08T07:10:29;60.02;41.04;75.06;;
64079;Laerm;51042;49.696;10.808;2023-07-08T07:12:54;64.73;46.14;77.92;;
64079;Laerm;51042;49.696;10.808;2023-07-08T07:15:19;62.55;46.84;74.98;;
64079;Laerm;51042;49.696;10.808;2023-07-08T07:17:46;67.14;41.44;84.35;;
64079;Laerm;51042;49.696;10.808;2023-07-08T07:20:12;63.15;45.74;82.21;;
64079;Laerm;51042;49.696;10.808;2023-07-08T07:22:38;60.74;41.49;70.44;;
64079;Laerm;51042;49.696;10.808;2023-07-08T07:25:04;61.47;44.65;70.30;;
64079;Laerm;51042;49.696;10.808;2023-07-08T07:27:30;60.21;41.19;71.71;;
64079;Laerm;51042;49.696;10.808;2023-07-08T07:29:55;60.13;44.11;71.83;;
64079;Laerm;51042;49.696;10.808;2023-07-08T07:32:23;61.67;44.36;76.16;;
64079;Laerm;51042;49.696;10.808;2023-07-08T07:34:49;63.07;44.96;77.82;;
64079;Laerm;51042;49.696;10.808;2023-07-08T07:37:17;60.27;45.89;72.38;;
64079;Laerm;51042;49.696;10.808;2023-07-08T07:39:42;62.22;42.80;75.38;;
64079;Laerm;51042;49.696;10.808;2023-07-08T07:42:09;63.25;47.13;81.86;;
64079;Laerm;51042;49.696;10.808;2023-07-08T07:44:35;62.87;47.62;80.23;;
64079;Laerm;51042;49.696;10.808;2023-07-08T07:47:01;60.59;46.09;76.57;;
64079;Laerm;51042;49.696;10.808;2023-07-08T07:49:27;62.42;46.76;74.44;;
64079;Laerm;51042;49.696;10.808;2023-07-08T07:51:52;65.46;47.06;84.38;;
64079;Laerm;51042;49.696;10.808;2023-07-08T07:54:18;61.53;46.25;74.33;;
64079;Laerm;51042;49.696;10.808;2023-07-08T07:56:43;61.17;45.01;72.81;;
64079;Laerm;51042;49.696;10.808;2023-07-08T07:59:09;60.83;45.26;73.27;;
64079;Laerm;51042;49.696;10.808;2023-07-08T08:01:35;60.73;43.30;71.37;;
64079;Laerm;51042;49.696;10.808;2023-07-08T08:04:00;63.35;43.29;82.32;;
64079;Laerm;51042;49.696;10.808;2023-07-08T08:06:26;62.53;43.70;74.85;;
64079;Laerm;51042;49.696;10.808;2023-07-08T08:08:51;61.56;46.88;76.37;;
64079;Laerm;51042;49.696;10.808;2023-07-08T08:11:16;63.33;42.12;80.90;;
64079;Laerm;51042;49.696;10.808;2023-07-08T08:13:42;62.19;46.51;71.82;;
64079;Laerm;51042;49.696;10.808;2023-07-08T08:16:07;62.84;46.06;76.79;;
64079;Laerm;51042;49.696;10.808;2023-07-08T08:18:33;61.91;42.70;76.83;;
64079;Laerm;51042;49.696;10.808;2023-07-08T08:20:58;63.16;50.93;72.24;;
64079;Laerm;51042;49.696;10.808;2023-07-08T08:23:24;67.87;48.91;84.15;;
64079;Laerm;51042;49.696;10.808;2023-07-08T08:25:50;60.10;44.07;69.93;;
64079;Laerm;51042;49.696;10.808;2023-07-08T08:28:16;63.57;44.95;85.67;;
64079;Laerm;51042;49.696;10.808;2023-07-08T08:30:41;63.27;44.69;77.00;;
64079;Laerm;51042;49.696;10.808;2023-07-08T08:33:07;64.65;47.38;80.89;;
64079;Laerm;51042;49.696;10.808;2023-07-08T08:35:32;66.15;51.58;79.16;;
64079;Laerm;51042;49.696;10.808;2023-07-08T08:37:58;62.36;45.74;77.66;;
64079;Laerm;51042;49.696;10.808;2023-07-08T08:40:23;64.25;46.91;77.03;;
64079;Laerm;51042;49.696;10.808;2023-07-08T08:43:06;66.54;48.64;85.22;;
64079;Laerm;51042;49.696;10.808;2023-07-08T08:45:41;63.22;48.50;72.81;;
64079;Laerm;51042;49.696;10.808;2023-07-08T08:48:11;62.10;46.52;76.44;;
64079;Laerm;51042;49.696;10.808;2023-07-08T08:50:47;61.94;46.92;75.39;;
64079;Laerm;51042;49.696;10.808;2023-07-08T08:53:17;66.39;49.75;80.61;;
64079;Laerm;51042;49.696;10.808;2023-07-08T08:55:45;67.37;47.41;85.90;;
64079;Laerm;51042;49.696;10.808;2023-07-08T08:58:33;65.09;48.01;82.35;;
64079;Laerm;51042;49.696;10.808;2023-07-08T09:01:04;61.08;46.71;71.21;;
64079;Laerm;51042;49.696;10.808;2023-07-08T09:03:42;61.32;45.13;75.73;;
64079;Laerm;51042;49.696;10.808;2023-07-08T09:06:37;64.90;46.51;78.84;;
64079;Laerm;51042;49.696;10.808;2023-07-08T09:09:11;65.11;45.87;78.44;;
64079;Laerm;51042;49.696;10.808;2023-07-08T09:11:53;63.92;44.76;84.32;;
64079;Laerm;51042;49.696;10.808;2023-07-08T09:14:29;65.11;49.70;85.77;;
64079;Laerm;51042;49.696;10.808;2023-07-08T09:19:45;60.91;44.83;74.55;;
64079;Laerm;51042;49.696;10.808;2023-07-08T09:22:17;60.73;43.63;73.71;;
64079;Laerm;51042;49.696;10.808;2023-07-08T09:24:49;62.48;45.87;75.88;;
64079;Laerm;51042;49.696;10.808;2023-07-08T09:27:16;69.21;44.92;87.00;;
64079;Laerm;51042;49.696;10.808;2023-07-08T09:29:41;61.88;44.51;76.52;;
64079;Laerm;51042;49.696;10.808;2023-07-08T09:34:55;61.93;43.13;77.64;;
64079;Laerm;51042;49.696;10.808;2023-07-08T09:37:26;62.30;44.50;80.72;;
64079;Laerm;51042;49.696;10.808;2023-07-08T09:39:53;61.35;43.75;71.64;;
64079;Laerm;51042;49.696;10.808;2023-07-08T09:42:21;63.33;49.88;77.36;;
64079;Laerm;51042;49.696;10.808;2023-07-08T09:44:47;62.31;44.63;78.46;;
64079;Laerm;51042;49.696;10.808;2023-07-08T09:47:26;62.78;42.56;77.76;;
64079;Laerm;51042;49.696;10.808;2023-07-08T09:49:53;60.54;44.46;72.88;;
64079;Laerm;51042;49.696;10.808;2023-07-08T09:52:19;61.74;44.56;78.17;;
64079;Laerm;51042;49.696;10.808;2023-07-08T09:54:45;69.16;45.36;85.86;;
64079;Laerm;51042;49.696;10.808;2023-07-08T09:57:30;62.19;43.66;75.35;;
64079;Laerm;51042;49.696;10.808;2023-07-08T10:00:08;65.13;49.86;81.50;;
64079;Laerm;51042;49.696;10.808;2023-07-08T10:02:43;65.70;46.41;85.34;;
64079;Laerm;51042;49.696;10.808;2023-07-08T10:07:54;64.67;45.94;85.12;;
64079;Laerm;51042;49.696;10.808;2023-07-08T10:10:34;63.28;47.01;78.86;;
64079;Laerm;51042;49.696;10.808;2023-07-08T10:13:02;67.69;47.38;85.81;;
64079;Laerm;51042;49.696;10.808;2023-07-08T10:15:38;71.69;47.04;86.46;;
64079;Laerm;51042;49.696;10.808;2023-07-08T10:18:15;63.83;45.71;79.39;;
64079;Laerm;51042;49.696;10.808;2023-07-08T10:26:31;60.44;43.46;71.93;;
64079;Laerm;51042;49.696;10.808;2023-07-08T10:37:03;63.33;46.47;77.74;;
64079;Laerm;51042;49.696;10.808;2023-07-08T10:39:58;61.24;43.69;71.08;;
64079;Laerm;51042;49.696;10.808;2023-07-08T10:45:09;63.89;45.42;81.10;;
64079;Laerm;51042;49.696;10.808;2023-07-08T10:50:43;70.38;43.73;89.47;;
64079;Laerm;51042;49.696;10.808;2023-07-08T10:56:20;60.74;44.93;75.34;;
64079;Laerm;51042;49.696;10.808;2023-07-08T11:07:19;61.31;42.16;75.24;;
64079;Laerm;51042;49.696;10.808;2023-07-08T11:10:00;61.63;45.11;79.00;;
64079;Laerm;51042;49.696;10.808;2023-07-08T11:12:57;75.38;44.74;100.08;;
64079;Laerm;51042;49.696;10.808;2023-07-08T11:15:31;60.12;41.83;73.24;;
64079;Laerm;51042;49.696;10.808;2023-07-08T11:18:05;62.23;43.47;72.73;;
64079;Laerm;51042;49.696;10.808;2023-07-08T11:20:37;60.54;44.30;76.83;;
64079;Laerm;51042;49.696;10.808;2023-07-08T11:23:12;61.21;44.77;74.13;;
64079;Laerm;51042;49.696;10.808;2023-07-08T11:25:43;64.03;48.43;77.51;;
64079;Laerm;51042;49.696;10.808;2023-07-08T11:28:13;63.87;45.42;76.08;;
64079;Laerm;51042;49.696;10.808;2023-07-08T11:30:40;59.86;43.74;71.51;;
64079;Laerm;51042;49.696;10.808;2023-07-08T11:33:10;64.52;44.14;81.71;;
64079;Laerm;51042;49.696;10.808;2023-07-08T11:35:44;65.09;45.31;81.58;;
64079;Laerm;51042;49.696;10.808;2023-07-08T11:38:14;61.75;46.05;76.11;;
64079;Laerm;51042;49.696;10.808;2023-07-08T11:41:00;60.09;44.12;72.31;;
64079;Laerm;51042;49.696;10.808;2023-07-08T11:43:48;62.61;44.77;76.66;;
64079;Laerm;51042;49.696;10.808;2023-07-08T11:46:20;60.68;42.62;73.67;;
64079;Laerm;51042;49.696;10.808;2023-07-08T11:48:48;62.46;46.11;75.03;;
64079;Laerm;51042;49.696;10.808;2023-07-08T11:51:27;59.97;44.28;79.83;;
64079;Laerm;51042;49.696;10.808;2023-07-08T11:56:59;66.63;44.30;81.67;;
64079;Laerm;51042;49.696;10.808;2023-07-08T11:59:29;61.61;44.52;73.45;;
64079;Laerm;51042;49.696;10.808;2023-07-08T12:02:11;59.99;43.51;79.57;;
64079;Laerm;51042;49.696;10.808;2023-07-08T12:05:00;60.13;45.51;73.77;;
64079;Laerm;51042;49.696;10.808;2023-07-08T12:07:42;61.80;45.83;74.63;;
64079;Laerm;51042;49.696;10.808;2023-07-08T12:10:57;60.26;44.51;70.45;;
64079;Laerm;51042;49.696;10.808;2023-07-08T12:12:57;62.15;46.34;73.15;;
64079;Laerm;51042;49.696;10.808;2023-07-08T12:15:30;58.19;42.86;70.38;;
64079;Laerm;51042;49.696;10.808;2023-07-08T12:18:01;61.02;44.69;74.18;;
64079;Laerm;51042;49.696;10.808;2023-07-08T12:20:32;61.14;45.71;75.41;;
64079;Laerm;51042;49.696;10.808;2023-07-08T12:22:58;62.53;42.76;79.28;;
64079;Laerm;51042;49.696;10.808;2023-07-08T12:25:29;59.34;43.83;70.44;;
64079;Laerm;51042;49.696;10.808;2023-07-08T12:27:54;59.76;44.47;72.37;;
64079;Laerm;51042;49.696;10.808;2023-07-08T12:30:20;59.58;43.78;73.34;;
64079;Laerm;51042;49.696;10.808;2023-07-08T12:32:46;60.93;43.26;77.32;;
64079;Laerm;51042;49.696;10.808;2023-07-08T12:35:22;63.30;46.23;79.25;;
64079;Laerm;51042;49.696;10.808;2023-07-08T12:37:50;63.93;44.75;79.03;;
64079;Laerm;51042;49.696;10.808;2023-07-08T12:40:15;58.77;44.58;69.75;;
64079;Laerm;51042;49.696;10.808;2023-07-08T12:42:41;61.30;46.07;74.76;;
64079;Laerm;51042;49.696;10.808;2023-07-08T12:45:20;59.94;43.30;75.92;;
64079;Laerm;51042;49.696;10.808;2023-07-08T12:47:46;61.69;44.38;73.19;;
64079;Laerm;51042;49.696;10.808;2023-07-08T12:50:12;59.24;43.80;72.19;;
64079;Laerm;51042;49.696;10.808;2023-07-08T12:52:38;66.51;45.11;83.60;;
64079;Laerm;51042;49.696;10.808;2023-07-08T12:55:04;65.54;43.68;79.78;;
64079;Laerm;51042;49.696;10.808;2023-07-08T12:57:30;60.24;43.49;77.74;;
64079;Laerm;51042;49.696;10.808;2023-07-08T12:59:56;60.21;43.79;74.77;;
64079;Laerm;51042;49.696;10.808;2023-07-08T13:02:25;60.25;42.85;76.29;;
64079;Laerm;51042;49.696;10.808;2023-07-08T13:04:56;60.85;43.08;74.82;;
64079;Laerm;51042;49.696;10.808;2023-07-08T13:09:54;60.29;41.55;74.79;;
64079;Laerm;51042;49.696;10.808;2023-07-08T13:12:21;59.52;44.17;71.54;;
64079;Laerm;51042;49.696;10.808;2023-07-08T13:14:51;60.25;42.36;86.00;;
64079;Laerm;51042;49.696;10.808;2023-07-08T13:17:17;64.57;42.09;85.44;;
64079;Laerm;51042;49.696;10.808;2023-07-08T13:19:44;60.35;43.96;78.28;;
64079;Laerm;51042;49.696;10.808;2023-07-08T13:22:15;61.09;43.35;75.64;;
64079;Laerm;51042;49.696;10.808;2023-07-08T13:24:41;64.28;44.51;86.27;;
64079;Laerm;51042;49.696;10.808;2023-07-08T13:27:14;62.66;45.93;82.76;;
64079;Laerm;51042;49.696;10.808;2023-07-08T13:29:41;66.49;44.15;82.01;;
64079;Laerm;51042;49.696;10.808;2023-07-08T13:32:10;57.99;43.13;73.50;;
64079;Laerm;51042;49.696;10.808;2023-07-08T13:34:35;60.76;44.33;74.22;;
64079;Laerm;51042;49.696;10.808;2023-07-08T13:37:01;60.68;44.98;75.31;;
64079;Laerm;51042;49.696;10.808;2023-07-08T13:39:32;62.49;44.72;80.40;;
64079;Laerm;51042;49.696;10.808;2023-07-08T13:41:59;57.00;43.14;70.76;;
64079;Laerm;51042;49.696;10.808;2023-07-08T13:44:25;57.66;44.76;71.78;;
64079;Laerm;51042;49.696;10.808;2023-07-08T13:46:56;60.32;44.07;73.52;;
64079;Laerm;51042;49.696;10.808;2023-07-08T13:49:39;59.07;43.35;75.46;;
64079;Laerm;51042;49.696;10.808;2023-07-08T13:54:57;58.77;43.35;71.75;;
64079;Laerm;51042;49.696;10.808;2023-07-08T13:57:29;58.56;43.44;72.42;;
64079;Laerm;51042;49.696;10.808;2023-07-08T13:59:54;60.19;46.13;75.31;;
64079;Laerm;51042;49.696;10.808;2023-07-08T14:02:23;59.14;43.90;75.19;;
64079;Laerm;51042;49.696;10.808;2023-07-08T14:04:51;58.48;43.73;70.20;;
64079;Laerm;51042;49.696;10.808;2023-07-08T14:07:24;85.25;44.12;106.46;;
64079;Laerm;51042;49.696;10.808;2023-07-08T14:09:49;66.80;43.28;86.76;;
64079;Laerm;51042;49.696;10.808;2023-07-08T14:12:15;59.59;43.15;73.65;;
64079;Laerm;51042;49.696;10.808;2023-07-08T14:14:41;57.84;43.05;72.18;;
64079;Laerm;51042;49.696;10.808;2023-07-08T14:17:11;57.57;42.77;73.24;;
64079;Laerm;51042;49.696;10.808;2023-07-08T14:19:37;56.48;44.04;67.21;;
64079;Laerm;51042;49.696;10.808;2023-07-08T14:24:38;66.24;45.36;81.95;;
64079;Laerm;51042;49.696;10.808;2023-07-08T14:27:05;64.51;44.04;80.79;;
64079;Laerm;51042;49.696;10.808;2023-07-08T14:29:30;60.66;43.27;77.15;;
64079;Laerm;51042;49.696;10.808;2023-07-08T14:31:56;60.95;43.98;79.90;;
64079;Laerm;51042;49.696;10.808;2023-07-08T14:34:25;59.09;44.40;71.96;;